Time;durP1;ratioP1;P1;durP2;ratioP2;P2;SDS_P1;SDS_P2;PMS_P1;PMS_P2;Temp;Humidity;BMP_temperature;BMP_pressure;BME280_temperature;BME280_humidity;BME280_pressure;Samples;Min_cycle;Max_cycle;Signal;HPM_P1;HPM_P2
2022/05/12 00:02:04;;;;;;;4.75;2.00;;;23.10;50.90;;;;;;5052425;28;20669;-60
2022/05/12 00:04:32;;;;;;;3.05;1.70;;;23.10;51.00;;;;;;5052397;28;20206;-60
2022/05/12 00:07:00;;;;;;;3.10;1.80;;;23.20;51.70;;;;;;5052020;28;20229;-61
2022/05/12 00:09:28;;;;;;;2.13;1.70;;;23.20;52.10;;;;;;5051935;28;20216;-60
2022/05/12 00:11:54;;;;;;;4.47;1.70;;;23.10;52.10;;;;;;5052352;28;20209;-60
2022/05/12 00:14:21;;;;;;;2.20;1.80;;;23.00;52.30;;;;;;5052356;28;20205;-61
2022/05/12 00:16:48;;;;;;;6.68;1.83;;;22.90;52.70;;;;;;5052197;28;20228;-60
2022/05/12 00:19:15;;;;;;;5.10;1.83;;;22.70;53.50;;;;;;5051967;28;20213;-60
2022/05/12 00:21:43;;;;;;;2.97;1.77;;;22.60;53.20;;;;;;5052119;28;20263;-60
2022/05/12 00:24:12;;;;;;;3.97;1.67;;;22.50;53.50;;;;;;5052012;28;20569;-59
2022/05/12 00:26:39;;;;;;;3.35;1.63;;;22.30;54.10;;;;;;5052037;28;20245;-60
2022/05/12 00:29:07;;;;;;;3.97;2.00;;;22.10;54.30;;;;;;5051692;28;20684;-60
2022/05/12 00:31:36;;;;;;;3.63;1.98;;;22.00;54.50;;;;;;5051851;28;20699;-60
2022/05/12 00:34:04;;;;;;;3.03;1.90;;;21.80;54.40;;;;;;5051831;28;20209;-60
2022/05/12 00:36:31;;;;;;;2.88;1.70;;;21.80;54.40;;;;;;5051626;28;20229;-60
2022/05/12 00:38:58;;;;;;;4.97;1.98;;;21.70;54.70;;;;;;5051725;28;20288;-60
2022/05/12 00:41:26;;;;;;;2.35;1.85;;;21.60;55.20;;;;;;5051916;28;20209;-60
2022/05/12 00:43:55;;;;;;;3.65;1.88;;;21.50;55.50;;;;;;5051964;28;20209;-60
2022/05/12 00:46:25;;;;;;;3.83;2.08;;;21.40;55.80;;;;;;5051635;28;20637;-60
2022/05/12 00:48:55;;;;;;;4.03;2.30;;;21.40;56.10;;;;;;5051446;28;20232;-61
2022/05/12 00:51:25;;;;;;;4.40;2.25;;;21.30;56.40;;;;;;5051588;28;20217;-60
2022/05/12 00:53:55;;;;;;;5.57;1.83;;;21.20;56.40;;;;;;5052019;28;20206;-60
2022/05/12 00:56:24;;;;;;;3.80;2.00;;;21.20;56.70;;;;;;5051681;28;20278;-60
2022/05/12 00:58:54;;;;;;;3.00;1.95;;;21.10;56.90;;;;;;5051742;28;20209;-60
2022/05/12 01:01:21;;;;;;;2.33;2.10;;;21.10;56.70;;;;;;5051978;28;20271;-60
2022/05/12 01:03:49;;;;;;;4.22;2.30;;;21.10;56.60;;;;;;5051564;28;20271;-60
2022/05/12 01:06:15;;;;;;;2.40;1.95;;;21.10;56.50;;;;;;5051364;28;20240;-60
2022/05/12 01:08:43;;;;;;;1.98;1.77;;;21.10;56.60;;;;;;5055308;28;20630;-60
2022/05/12 01:11:14;;;;;;;3.53;2.05;;;21.10;56.80;;;;;;5055642;28;20631;-60
2022/05/12 01:13:41;;;;;;;3.72;1.73;;;21.00;57.10;;;;;;5055623;28;20205;-60
2022/05/12 01:16:09;;;;;;;3.33;2.10;;;21.00;57.10;;;;;;5055172;28;20226;-60
2022/05/12 01:18:39;;;;;;;2.72;1.90;;;20.90;57.20;;;;;;5055307;28;20231;-59
2022/05/12 01:21:08;;;;;;;5.32;2.00;;;20.80;57.60;;;;;;5055499;28;20217;-59
2022/05/12 01:23:38;;;;;;;2.85;2.00;;;20.80;57.80;;;;;;5055378;28;20212;-59
2022/05/12 01:26:08;;;;;;;5.57;2.00;;;20.80;57.80;;;;;;5055220;28;20255;-59
2022/05/12 01:28:36;;;;;;;4.47;2.33;;;20.80;58.00;;;;;;5055156;28;20275;-59
2022/05/12 01:31:04;;;;;;;3.10;1.98;;;20.70;58.10;;;;;;5055347;28;20201;-59
2022/05/12 01:33:32;;;;;;;3.08;2.10;;;20.70;58.50;;;;;;5055269;28;20209;-59
2022/05/12 01:35:58;;;;;;;4.85;2.30;;;20.70;58.50;;;;;;5054928;28;20233;-60
2022/05/12 01:38:25;;;;;;;3.42;2.00;;;20.60;58.80;;;;;;5055120;28;20201;-59
2022/05/12 01:40:53;;;;;;;3.80;1.90;;;20.60;59.00;;;;;;5055076;28;20213;-59
2022/05/12 01:43:21;;;;;;;3.97;2.13;;;20.50;59.20;;;;;;5054899;28;20312;-59
2022/05/12 01:45:47;;;;;;;2.75;1.80;;;20.50;60.00;;;;;;5055071;28;20662;-59
2022/05/12 01:48:16;;;;;;;3.97;2.00;;;20.40;60.90;;;;;;5054581;28;20551;-60
2022/05/12 01:50:45;;;;;;;4.20;2.28;;;20.30;61.00;;;;;;5054923;28;20263;-59
2022/05/12 01:53:12;;;;;;;4.78;2.05;;;20.20;61.80;;;;;;5054791;28;20655;-60
2022/05/12 01:55:40;;;;;;;4.20;2.30;;;20.10;62.10;;;;;;5054628;28;20321;-60
2022/05/12 01:58:08;;;;;;;4.70;2.08;;;20.10;62.50;;;;;;5054544;28;20279;-60
2022/05/12 02:00:36;;;;;;;4.28;1.95;;;20.00;62.50;;;;;;5054652;28;20205;-60
2022/05/12 02:03:03;;;;;;;5.78;2.10;;;20.00;62.70;;;;;;5054506;28;20669;-59
2022/05/12 02:05:31;;;;;;;3.88;2.35;;;20.00;63.50;;;;;;5054505;28;20704;-59
2022/05/12 02:07:58;;;;;;;3.72;2.10;;;19.90;63.40;;;;;;5054482;28;20720;-59
2022/05/12 02:10:27;;;;;;;3.40;2.40;;;19.90;63.20;;;;;;5054216;28;20275;-59
2022/05/12 02:12:54;;;;;;;3.33;2.10;;;19.90;63.00;;;;;;5054697;28;20352;-59
2022/05/12 02:15:22;;;;;;;3.10;2.30;;;19.90;63.40;;;;;;5054459;28;20233;-60
2022/05/12 02:17:49;;;;;;;5.30;2.35;;;19.90;63.60;;;;;;5054496;28;20229;-60
2022/05/12 02:20:18;;;;;;;3.97;2.10;;;19.90;63.90;;;;;;5053438;28;20318;-61
2022/05/12 02:22:45;;;;;;;2.88;2.40;;;19.90;64.70;;;;;;5054352;28;20201;-61
2022/05/12 02:25:12;;;;;;;3.83;2.00;;;19.90;65.50;;;;;;5054427;28;20639;-61
2022/05/12 02:27:42;;;;;;;3.20;2.10;;;19.90;66.00;;;;;;5054291;28;20256;-60
2022/05/12 02:30:11;;;;;;;3.08;2.15;;;19.80;68.10;;;;;;5054277;28;20210;-60
2022/05/12 02:32:39;;;;;;;3.15;1.80;;;19.80;69.20;;;;;;5054199;28;20249;-60
2022/05/12 02:35:07;;;;;;;2.65;1.70;;;19.80;70.10;;;;;;5053981;28;20225;-60
2022/05/12 02:37:34;;;;;;;8.32;1.83;;;19.80;71.20;;;;;;5053790;28;20221;-60
2022/05/12 02:40:00;;;;;;;3.95;1.95;;;19.80;72.00;;;;;;5053904;28;20255;-61
2022/05/12 02:42:27;;;;;;;3.83;2.00;;;19.80;72.00;;;;;;5054038;28;20209;-60
2022/05/12 02:44:54;;;;;;;1.98;1.50;;;19.90;72.60;;;;;;5053656;28;20735;-61
2022/05/12 02:47:21;;;;;;;2.10;1.65;;;19.90;72.70;;;;;;5053760;28;20731;-61
2022/05/12 02:49:49;;;;;;;2.45;1.80;;;19.90;73.30;;;;;;5053439;28;20217;-60
2022/05/12 02:52:15;;;;;;;6.90;2.05;;;19.90;73.80;;;;;;5053623;28;20202;-61
2022/05/12 02:54:42;;;;;;;2.53;1.65;;;20.00;74.00;;;;;;5053771;28;20201;-60
2022/05/12 02:57:09;;;;;;;6.00;1.70;;;20.00;74.20;;;;;;5053609;28;20645;-60
2022/05/12 02:59:37;;;;;;;5.85;2.10;;;20.10;74.40;;;;;;5053550;28;20205;-60
2022/05/12 03:02:04;;;;;;;4.78;2.00;;;20.20;74.70;;;;;;5053602;28;20205;-60
2022/05/12 03:04:31;;;;;;;3.38;2.30;;;20.30;74.90;;;;;;5053378;28;20205;-61
2022/05/12 03:06:59;;;;;;;2.03;1.83;;;20.30;74.90;;;;;;5053301;28;20241;-61
2022/05/12 03:09:26;;;;;;;2.67;2.00;;;20.30;75.50;;;;;;5053540;28;20267;-60
2022/05/12 03:11:53;;;;;;;3.45;1.77;;;20.30;75.90;;;;;;5053649;28;20251;-60
2022/05/12 03:14:19;;;;;;;2.05;1.75;;;20.20;76.20;;;;;;5053269;28;20216;-60
2022/05/12 03:16:46;;;;;;;5.80;2.05;;;20.20;76.80;;;;;;5053208;28;20233;-60
2022/05/12 03:19:14;;;;;;;3.70;1.95;;;20.10;77.50;;;;;;5052810;28;20205;-61
2022/05/12 03:21:40;;;;;;;2.63;2.00;;;20.10;77.60;;;;;;5053376;28;20205;-60
2022/05/12 03:24:10;;;;;;;3.45;2.03;;;20.10;78.10;;;;;;5053268;28;20232;-61
2022/05/12 03:26:36;;;;;;;2.75;2.05;;;20.10;78.50;;;;;;5053109;28;20283;-60
2022/05/12 03:29:03;;;;;;;3.58;2.20;;;20.10;79.20;;;;;;5052799;28;20319;-60
2022/05/12 03:31:30;;;;;;;2.33;1.83;;;20.00;79.60;;;;;;5051716;28;20228;-60
2022/05/12 03:33:56;;;;;;;4.13;2.00;;;20.00;80.20;;;;;;5052806;28;20205;-61
2022/05/12 03:36:23;;;;;;;3.28;1.85;;;19.90;80.70;;;;;;5052611;28;20221;-60
2022/05/12 03:38:50;;;;;;;6.18;2.08;;;19.90;80.80;;;;;;5052535;28;20240;-60
2022/05/12 03:41:18;;;;;;;6.85;2.00;;;19.80;81.20;;;;;;5052716;28;20682;-60
2022/05/12 03:46:30;;;;;;;2.75;1.45;;;19.80;82.00;;;;;;5052758;28;20221;-60
2022/05/12 03:48:58;;;;;;;4.43;1.60;;;19.80;82.40;;;;;;5052481;28;20650;-60
2022/05/12 03:51:25;;;;;;;2.25;1.50;;;19.80;82.90;;;;;;5052677;28;20209;-60
2022/05/12 03:53:52;;;;;;;1.95;1.48;;;19.80;83.20;;;;;;5052620;28;20220;-59
2022/05/12 03:56:21;;;;;;;2.70;1.67;;;19.80;83.60;;;;;;5052476;28;20231;-59
2022/05/12 03:58:48;;;;;;;5.65;1.60;;;19.80;84.00;;;;;;5052196;28;20236;-60
2022/05/12 04:01:15;;;;;;;4.57;2.30;;;19.80;84.60;;;;;;5052589;28;20296;-59
2022/05/12 04:03:42;;;;;;;6.88;2.92;;;19.80;84.80;;;;;;5052575;28;20628;-60
2022/05/12 04:06:09;;;;;;;2.35;1.42;;;19.80;85.20;;;;;;5052279;28;20238;-61
2022/05/12 04:08:36;;;;;;;2.78;1.25;;;19.80;86.00;;;;;;5052180;28;20282;-60
2022/05/12 04:11:03;;;;;;;3.38;1.30;;;19.80;86.00;;;;;;5052327;28;20301;-60
2022/05/12 04:13:31;;;;;;;6.18;1.52;;;19.80;86.30;;;;;;5052133;28;20661;-60
2022/05/12 04:15:57;;;;;;;3.33;1.50;;;19.90;86.40;;;;;;5052264;28;20299;-60
2022/05/12 04:18:25;;;;;;;3.55;1.45;;;19.90;86.90;;;;;;5052100;28;20299;-60
2022/05/12 04:20:53;;;;;;;2.40;1.20;;;19.90;87.00;;;;;;5052037;28;20297;-60
2022/05/12 04:23:20;;;;;;;3.33;1.70;;;20.00;87.40;;;;;;5052164;28;20316;-60
2022/05/12 04:25:46;;;;;;;2.00;1.23;;;19.90;87.80;;;;;;5051958;28;20225;-60
2022/05/12 04:28:13;;;;;;;2.40;1.42;;;20.00;88.10;;;;;;5052660;28;20206;-60
2022/05/12 04:30:41;;;;;;;1.73;1.08;;;20.00;88.60;;;;;;5051877;28;20202;-61
2022/05/12 04:35:52;;;;;;;3.55;1.60;;;20.10;89.30;;;;;;5052476;28;20336;-60
2022/05/12 04:38:19;;;;;;;2.85;1.52;;;20.20;89.30;;;;;;5051729;28;20248;-60
2022/05/12 04:40:45;;;;;;;6.50;1.88;;;20.30;89.10;;;;;;5051813;28;20209;-60
2022/05/12 04:43:12;;;;;;;4.63;1.30;;;20.50;88.90;;;;;;5051536;28;20240;-60
2022/05/12 04:45:40;;;;;;;3.92;1.20;;;20.60;88.90;;;;;;5051435;28;20233;-60
2022/05/12 04:48:07;;;;;;;2.40;1.30;;;20.60;88.70;;;;;;5051650;28;20225;-60
2022/05/12 04:50:37;;;;;;;3.13;1.75;;;20.70;88.80;;;;;;5051355;28;20208;-60
2022/05/12 04:53:05;;;;;;;2.60;1.40;;;20.70;88.80;;;;;;5051646;28;20296;-60
2022/05/12 04:55:33;;;;;;;4.38;1.30;;;20.90;88.70;;;;;;5051695;28;20233;-60
2022/05/12 04:58:00;;;;;;;3.05;1.58;;;21.00;88.50;;;;;;5051591;28;20221;-61
2022/05/12 05:00:29;;;;;;;4.95;1.38;;;21.10;88.40;;;;;;5051188;28;20228;-60
2022/05/12 05:02:57;;;;;;;2.25;1.30;;;21.10;88.50;;;;;;5051468;28;20205;-60
2022/05/12 05:05:24;;;;;;;6.90;1.50;;;21.20;88.50;;;;;;5051816;28;20237;-60
2022/05/12 05:07:51;;;;;;;1.75;1.30;;;21.30;88.40;;;;;;5052370;28;20205;-62
2022/05/12 05:10:17;;;;;;;3.92;1.35;;;21.40;88.30;;;;;;5052312;28;20697;-60
2022/05/12 05:12:45;;;;;;;2.45;1.52;;;21.50;88.40;;;;;;5052801;28;20202;-60
2022/05/12 05:15:13;;;;;;;3.17;1.48;;;21.70;88.20;;;;;;5052695;28;20229;-60
2022/05/12 05:17:41;;;;;;;3.65;1.40;;;22.00;87.70;;;;;;5053191;28;20612;-61
2022/05/12 05:20:12;;;;;;;4.20;1.50;;;22.20;87.10;;;;;;5052693;28;20288;-60
2022/05/12 05:22:39;;;;;;;1.63;1.20;;;22.40;86.70;;;;;;5053122;28;20243;-61
2022/05/12 05:25:07;;;;;;;2.10;1.17;;;22.40;86.30;;;;;;5052948;28;20255;-60
2022/05/12 05:27:34;;;;;;;3.90;1.35;;;22.50;86.60;;;;;;5052819;28;20661;-60
2022/05/12 05:30:00;;;;;;;3.20;1.30;;;22.50;86.10;;;;;;5052758;28;20201;-60
2022/05/12 05:32:28;;;;;;;3.88;1.50;;;22.70;85.50;;;;;;5052459;28;20213;-60
2022/05/12 05:34:55;;;;;;;2.72;1.40;;;23.00;84.60;;;;;;5052467;28;20293;-60
2022/05/12 05:37:23;;;;;;;4.68;1.30;;;23.40;83.30;;;;;;5052032;28;20584;-60
2022/05/12 05:39:49;;;;;;;2.05;1.17;;;24.00;82.40;;;;;;5051758;28;20229;-61
2022/05/12 05:42:19;;;;;;;5.40;1.10;;;25.20;78.70;;;;;;5052022;28;20206;-61
2022/05/12 05:44:46;;;;;;;3.20;1.25;;;26.20;75.20;;;;;;5052014;28;20210;-61
2022/05/12 05:47:13;;;;;;;4.47;1.13;;;26.70;72.90;;;;;;5051642;28;20213;-60
2022/05/12 05:49:41;;;;;;;7.15;1.10;;;26.50;72.80;;;;;;5051465;28;20209;-61
2022/05/12 05:54:54;;;;;;;5.97;1.25;;;25.90;74.00;;;;;;5054666;28;20209;-61
2022/05/12 05:57:23;;;;;;;2.45;1.20;;;25.60;74.70;;;;;;5055865;28;20216;-60
2022/05/12 05:59:50;;;;;;;3.38;1.10;;;25.40;75.60;;;;;;5055509;28;20201;-60
2022/05/12 06:02:17;;;;;;;2.35;1.20;;;25.20;76.40;;;;;;5055818;28;20209;-60
2022/05/12 06:04:44;;;;;;;3.90;1.35;;;25.00;76.40;;;;;;5055605;28;20213;-59
2022/05/12 06:07:11;;;;;;;4.95;1.20;;;24.90;77.00;;;;;;5055503;28;20262;-60
2022/05/12 06:09:38;;;;;;;3.53;1.20;;;24.70;77.60;;;;;;5055121;28;20292;-60
2022/05/12 06:12:07;;;;;;;4.47;1.33;;;24.30;78.90;;;;;;5055151;28;20662;-61
2022/05/12 06:14:34;;;;;;;2.38;1.02;;;24.00;79.30;;;;;;5055458;28;20209;-60
2022/05/12 06:17:00;;;;;;;4.10;1.25;;;23.90;80.20;;;;;;5054912;28;20233;-60
2022/05/12 06:19:27;;;;;;;1.95;1.38;;;23.80;80.40;;;;;;5054754;28;20232;-61
2022/05/12 06:21:54;;;;;;;2.28;1.13;;;23.70;81.30;;;;;;5054825;28;20578;-60
2022/05/12 06:24:21;;;;;;;3.80;1.20;;;23.60;81.20;;;;;;5054858;28;20205;-60
2022/05/12 06:26:48;;;;;;;3.15;1.08;;;23.60;81.60;;;;;;5055104;28;20652;-60
2022/05/12 06:29:16;;;;;;;2.15;1.30;;;23.60;82.00;;;;;;5054930;28;20210;-60
2022/05/12 06:31:43;;;;;;;2.53;1.10;;;23.60;81.70;;;;;;5055019;28;20240;-60
2022/05/12 06:34:10;;;;;;;1.15;1.05;;;23.80;81.50;;;;;;5054819;28;20202;-60
2022/05/12 06:36:37;;;;;;;5.00;1.40;;;23.90;81.40;;;;;;5054535;28;20232;-60
2022/05/12 06:39:03;;;;;;;3.40;1.10;;;24.00;80.60;;;;;;5054629;28;20232;-60
2022/05/12 06:41:32;;;;;;;3.22;1.17;;;24.10;80.40;;;;;;5054655;28;20701;-60
2022/05/12 06:43:59;;;;;;;1.95;1.00;;;24.30;80.40;;;;;;5054780;28;20205;-60
2022/05/12 06:46:27;;;;;;;3.20;1.15;;;24.50;79.80;;;;;;5054777;28;20229;-60
2022/05/12 06:48:54;;;;;;;3.28;1.00;;;24.80;78.70;;;;;;5054506;28;20214;-60
2022/05/12 06:51:21;;;;;;;3.63;1.00;;;25.00;78.60;;;;;;5054435;28;20209;-60
2022/05/12 06:53:48;;;;;;;1.65;1.10;;;25.20;77.70;;;;;;5054384;28;20206;-60
2022/05/12 06:56:15;;;;;;;1.73;1.17;;;25.30;77.80;;;;;;5053991;28;20709;-60
2022/05/12 06:58:42;;;;;;;2.25;1.10;;;25.30;78.00;;;;;;5053921;28;20307;-61
2022/05/12 07:01:10;;;;;;;2.20;1.13;;;25.60;77.30;;;;;;5054441;28;20209;-61
2022/05/12 07:03:38;;;;;;;5.00;1.05;;;25.70;77.00;;;;;;5054246;28;20260;-60
2022/05/12 07:06:06;;;;;;;2.83;1.10;;;25.60;77.20;;;;;;5053376;28;20237;-61
2022/05/12 07:08:33;;;;;;;4.80;1.20;;;25.40;77.30;;;;;;5053239;28;20208;-62
2022/05/12 07:11:00;;;;;;;1.38;1.02;;;25.30;78.20;;;;;;5053365;28;20205;-61
2022/05/12 07:13:26;;;;;;;3.67;1.10;;;25.10;78.40;;;;;;5053455;28;20210;-61
2022/05/12 07:15:54;;;;;;;4.00;1.13;;;25.00;79.10;;;;;;5053247;28;20252;-61
2022/05/12 07:18:21;;;;;;;1.20;0.80;;;25.00;79.70;;;;;;5053197;28;20316;-61
2022/05/12 07:29:01;;;;;;;2.05;0.98;;;24.70;79.10;;;;;;5052983;28;20200;-60
2022/05/12 07:31:29;;;;;;;2.40;1.40;;;24.50;79.80;;;;;;5053235;28;20209;-61
2022/05/12 07:33:57;;;;;;;5.70;1.52;;;24.40;80.70;;;;;;5053358;28;20205;-62
2022/05/12 07:36:27;;;;;;;2.15;1.40;;;24.20;81.10;;;;;;5052853;28;20229;-61
2022/05/12 07:38:55;;;;;;;4.50;1.20;;;24.10;81.90;;;;;;5052645;28;20229;-61
2022/05/12 07:41:22;;;;;;;4.22;1.05;;;24.00;82.50;;;;;;5052965;28;20206;-62
2022/05/12 07:43:51;;;;;;;6.15;1.52;;;23.90;83.70;;;;;;5052772;28;20205;-61
2022/05/12 07:46:21;;;;;;;4.30;0.55;;;23.80;84.80;;;;;;5052838;28;20225;-61
2022/05/12 07:48:48;;;;;;;3.78;1.30;;;23.80;84.90;;;;;;5052538;28;20212;-61
2022/05/12 07:51:16;;;;;;;2.22;1.20;;;23.90;84.90;;;;;;5052876;28;20206;-61
2022/05/12 07:53:46;;;;;;;5.15;1.40;;;23.90;85.00;;;;;;5052248;28;20209;-61
2022/05/12 07:56:13;;;;;;;5.18;1.05;;;23.90;85.30;;;;;;5052562;28;20404;-61
2022/05/12 07:58:40;;;;;;;3.78;1.30;;;24.10;85.80;;;;;;5052676;28;20316;-62
2022/05/12 08:01:07;;;;;;;2.63;1.13;;;24.60;83.40;;;;;;5052440;28;20206;-61
2022/05/12 08:03:34;;;;;;;1.70;1.17;;;25.00;81.40;;;;;;5052499;28;20229;-60
2022/05/12 08:06:02;;;;;;;4.80;1.73;;;25.30;80.50;;;;;;5052428;28;20325;-59
2022/05/12 08:08:29;;;;;;;4.30;1.35;;;25.90;79.60;;;;;;5052263;28;20645;-60
2022/05/12 08:10:57;;;;;;;4.97;1.40;;;26.40;78.20;;;;;;5051958;28;20209;-58
2022/05/12 08:13:25;;;;;;;7.45;3.75;;;26.90;75.50;;;;;;5052480;28;20220;-56
2022/05/12 08:15:53;;;;;;;3.90;1.20;;;27.20;73.80;;;;;;5052138;28;20275;-57
2022/05/12 08:18:22;;;;;;;2.95;0.90;;;27.20;73.30;;;;;;5051761;28;20225;-56
2022/05/12 08:20:50;;;;;;;1.98;0.93;;;27.90;72.50;;;;;;5051846;28;20581;-56
2022/05/12 08:23:17;;;;;;;2.63;1.50;;;28.70;69.10;;;;;;5051958;28;20208;-55
2022/05/12 08:25:45;;;;;;;3.10;1.10;;;29.70;67.20;;;;;;5051970;28;20222;-58
2022/05/12 08:28:16;;;;;;;5.53;0.90;;;30.60;64.40;;;;;;5052286;28;20201;-58
2022/05/12 08:30:43;;;;;;;2.75;1.25;;;30.90;63.30;;;;;;5052420;28;20630;-58
2022/05/12 08:33:10;;;;;;;4.32;1.08;;;30.90;63.00;;;;;;5052147;28;20297;-59
2022/05/12 08:35:37;;;;;;;2.33;1.10;;;30.70;63.10;;;;;;5051569;28;20255;-58
2022/05/12 08:38:04;;;;;;;3.45;1.05;;;30.40;63.60;;;;;;5051409;28;20221;-58
2022/05/12 08:40:38;;;;;;;1.63;1.00;;;30.10;63.90;;;;;;5051755;28;20209;-59
2022/05/12 08:43:12;;;;;;;5.40;1.33;;;30.00;64.50;;;;;;5051769;28;20579;-58
2022/05/12 08:45:41;;;;;;;2.55;1.08;;;29.90;64.40;;;;;;5051513;28;20764;-58
2022/05/12 08:48:10;;;;;;;3.22;1.13;;;29.70;64.70;;;;;;5051516;28;20208;-57
2022/05/12 08:50:39;;;;;;;3.13;1.08;;;29.50;65.20;;;;;;5051657;28;20209;-56
2022/05/12 08:53:13;;;;;;;3.17;0.93;;;29.30;65.90;;;;;;5051819;28;20205;-60
2022/05/12 08:55:45;;;;;;;5.88;1.00;;;28.90;66.70;;;;;;5051546;28;20237;-57
2022/05/12 08:58:20;;;;;;;4.28;1.20;;;28.30;67.40;;;;;;5051717;28;20205;-57
2022/05/12 09:00:58;;;;;;;2.25;1.05;;;28.00;68.60;;;;;;5051108;28;20208;-55
2022/05/12 09:03:34;;;;;;;5.18;1.40;;;27.80;68.90;;;;;;5051805;28;20209;-56
2022/05/12 09:06:06;;;;;;;6.00;1.33;;;27.60;69.80;;;;;;5051231;28;20796;-57
2022/05/12 09:08:40;;;;;;;4.80;1.63;;;27.50;70.60;;;;;;5051720;28;20301;-59
2022/05/12 09:11:16;;;;;;;3.35;1.13;;;27.50;70.50;;;;;;5051090;28;20585;-57
2022/05/12 09:13:49;;;;;;;3.75;1.20;;;27.70;70.70;;;;;;5051403;28;20228;-56
2022/05/12 09:16:20;;;;;;;2.15;1.20;;;28.00;69.30;;;;;;5051345;28;20312;-57
2022/05/12 09:18:48;;;;;;;3.88;1.58;;;28.10;69.00;;;;;;5051224;28;20732;-57
2022/05/12 09:21:18;;;;;;;3.50;1.27;;;28.20;68.70;;;;;;5050967;28;20587;-58
2022/05/12 09:23:45;;;;;;;4.82;1.35;;;28.30;68.90;;;;;;5051130;28;20707;-57
2022/05/12 09:26:37;;;;;;;4.20;1.63;;;28.40;68.00;;;;;;5051111;28;20644;-58
2022/05/12 09:29:19;;;;;;;1.38;1.20;;;28.30;68.40;;;;;;5053594;28;20267;-58
2022/05/12 09:31:50;;;;;;;5.10;2.10;;;28.10;68.60;;;;;;5055624;28;20209;-58
2022/05/12 09:34:27;;;;;;;2.83;1.42;;;27.60;70.10;;;;;;5055345;28;20213;-57
2022/05/12 09:36:55;;;;;;;4.45;1.60;;;27.00;71.50;;;;;;5055396;28;20225;-59
2022/05/12 09:39:38;;;;;;;3.55;1.70;;;26.50;73.90;;;;;;5054969;28;20713;-57
2022/05/12 09:42:07;;;;;;;3.17;2.10;;;26.40;74.20;;;;;;5053523;28;20241;-58
2022/05/12 09:44:34;;;;;;;5.20;2.50;;;26.70;74.50;;;;;;5055083;28;20210;-57
2022/05/12 09:47:07;;;;;;;3.40;1.92;;;26.70;73.40;;;;;;5055477;28;20233;-57
2022/05/12 09:49:38;;;;;;;3.28;1.45;;;26.80;73.10;;;;;;5055138;28;20202;-57
2022/05/12 09:52:24;;;;;;;3.38;1.40;;;26.90;73.40;;;;;;5055315;28;20304;-57
2022/05/12 09:55:11;;;;;;;5.35;1.80;;;27.10;73.30;;;;;;5055138;28;20706;-56
2022/05/12 09:57:44;;;;;;;2.42;1.50;;;27.10;74.00;;;;;;5055775;28;20240;-58
2022/05/12 10:00:26;;;;;;;3.97;1.63;;;27.00;72.50;;;;;;5055114;28;20275;-55
2022/05/12 10:08:30;;;;;;;1.90;1.30;;;27.90;70.80;;;;;;5054600;28;20204;-59
2022/05/12 10:11:00;;;;;;;3.95;1.60;;;27.70;70.70;;;;;;5055002;28;20227;-56
2022/05/12 10:13:33;;;;;;;6.93;1.85;;;27.40;71.50;;;;;;5054570;28;20400;-56
2022/05/12 10:16:00;;;;;;;3.47;1.50;;;27.20;71.50;;;;;;5054374;28;20255;-57
2022/05/12 10:18:34;;;;;;;4.30;1.58;;;27.00;72.40;;;;;;5054610;28;20213;-58
2022/05/12 10:21:09;;;;;;;7.00;1.85;;;27.10;73.10;;;;;;5053945;28;20209;-57
2022/05/12 10:23:45;;;;;;;4.13;1.77;;;27.30;73.00;;;;;;5054065;28;20300;-57
2022/05/12 10:26:20;;;;;;;3.53;1.75;;;27.60;71.90;;;;;;5053930;28;20640;-57
2022/05/12 10:28:51;;;;;;;3.15;1.52;;;27.70;70.90;;;;;;5054424;28;20644;-63
2022/05/12 10:31:25;;;;;;;2.22;1.52;;;27.60;72.10;;;;;;5054253;28;20591;-58
2022/05/12 10:34:12;;;;;;;2.78;1.55;;;27.50;72.20;;;;;;5054238;28;20209;-57
2022/05/12 10:36:48;;;;;;;2.78;1.70;;;27.40;71.90;;;;;;5051352;28;20271;-58
2022/05/12 10:39:25;;;;;;;3.53;1.90;;;27.30;73.20;;;;;;5053166;28;20642;-58
2022/05/12 10:42:06;;;;;;;4.10;2.00;;;27.30;72.40;;;;;;5053923;28;20217;-58
2022/05/12 10:44:53;;;;;;;4.47;2.30;;;27.30;71.00;;;;;;5053726;28;20205;-59
2022/05/12 10:47:27;;;;;;;4.45;2.08;;;27.20;71.20;;;;;;5053736;28;20206;-58
2022/05/12 10:50:03;;;;;;;6.32;1.92;;;27.10;72.20;;;;;;5053502;28;20213;-58
2022/05/12 10:52:39;;;;;;;5.07;2.00;;;27.10;72.30;;;;;;5053694;28;20296;-59
2022/05/12 10:55:26;;;;;;;3.47;1.58;;;27.20;70.50;;;;;;5053226;28;20229;-57
2022/05/12 10:58:04;;;;;;;3.97;1.98;;;27.20;70.80;;;;;;5053755;28;20209;-58
2022/05/12 11:00:43;;;;;;;5.78;1.77;;;27.30;71.30;;;;;;5053475;28;20278;-58
2022/05/12 11:03:18;;;;;;;2.83;1.85;;;27.30;71.90;;;;;;5053415;28;20677;-58
2022/05/12 11:05:51;;;;;;;5.10;2.60;;;27.60;71.40;;;;;;5053606;28;20294;-58
2022/05/12 11:08:22;;;;;;;4.07;1.88;;;28.10;70.30;;;;;;5053422;28;20263;-58
2022/05/12 11:10:52;;;;;;;4.07;1.80;;;28.40;68.00;;;;;;5053008;28;20202;-59
2022/05/12 11:13:26;;;;;;;5.28;2.10;;;28.30;67.70;;;;;;5053274;28;20266;-59
2022/05/12 11:15:58;;;;;;;4.93;2.40;;;28.20;69.10;;;;;;5053086;28;20224;-59
2022/05/12 11:18:31;;;;;;;4.95;2.25;;;28.40;68.00;;;;;;5053095;28;20205;-59
2022/05/12 11:21:06;;;;;;;5.72;2.47;;;28.60;68.00;;;;;;5052858;28;20279;-60
2022/05/12 11:23:45;;;;;;;5.03;2.10;;;28.50;67.90;;;;;;5053130;28;20283;-59
2022/05/12 11:26:23;;;;;;;2.47;2.00;;;28.50;67.60;;;;;;5053284;28;20256;-59
2022/05/12 11:31:48;;;;;;;2.95;2.00;;;28.40;67.60;;;;;;5053190;28;20279;-59
2022/05/12 11:34:18;;;;;;;4.35;1.70;;;28.60;67.50;;;;;;5053231;28;20210;-58
2022/05/12 11:36:49;;;;;;;5.32;2.05;;;28.70;66.30;;;;;;5052814;28;20755;-59
2022/05/12 11:39:54;;;;;;;4.97;1.70;;;28.90;65.60;;;;;;5052523;28;20238;-59
2022/05/12 11:42:22;;;;;;;3.95;1.98;;;29.00;65.50;;;;;;5052834;28;20251;-60
2022/05/12 11:44:58;;;;;;;6.20;2.30;;;28.80;65.20;;;;;;5052868;28;20300;-60
2022/05/12 11:48:01;;;;;;;4.13;1.92;;;28.60;66.20;;;;;;5052410;28;20259;-59
2022/05/12 11:50:51;;;;;;;5.25;2.10;;;28.30;66.90;;;;;;5052506;28;20582;-59
2022/05/12 11:53:21;;;;;;;4.10;2.03;;;28.10;67.60;;;;;;5051985;28;20206;-58
2022/05/12 11:56:06;;;;;;;5.60;2.40;;;27.90;68.90;;;;;;5052323;28;20225;-59
2022/05/12 11:58:37;;;;;;;4.43;2.35;;;28.00;67.80;;;;;;5051480;28;20312;-58
2022/05/12 12:01:07;;;;;;;5.68;2.15;;;28.10;66.80;;;;;;5052402;28;20318;-58
2022/05/12 12:03:52;;;;;;;4.55;1.83;;;28.40;67.20;;;;;;5052498;28;20631;-58
2022/05/12 12:06:50;;;;;;;4.55;2.05;;;28.60;67.20;;;;;;5052227;28;20316;-60
2022/05/12 12:09:49;;;;;;;3.55;2.10;;;28.70;66.50;;;;;;5046379;28;20236;-59
2022/05/12 12:12:52;;;;;;;2.05;1.83;;;28.60;66.50;;;;;;5052239;28;20773;-59
2022/05/12 12:15:42;;;;;;;5.13;3.10;;;28.40;66.30;;;;;;5052222;28;20256;-60
2022/05/12 12:18:55;;;;;;;3.17;1.70;;;28.60;66.90;;;;;;5052048;28;20213;-59
2022/05/12 12:21:53;;;;;;;2.58;2.00;;;28.90;65.90;;;;;;5052117;28;20324;-59
2022/05/12 12:25:04;;;;;;;4.95;2.10;;;29.40;66.80;;;;;;5052109;28;20220;-59
2022/05/12 12:27:49;;;;;;;4.22;2.35;;;29.90;63.70;;;;;;5036753;28;20209;-58
2022/05/12 12:30:36;;;;;;;7.60;2.53;;;30.50;62.90;;;;;;5051911;28;20209;-57
2022/05/12 12:33:19;;;;;;;5.70;2.25;;;31.00;61.10;;;;;;5051744;28;20213;-57
2022/05/12 12:36:05;;;;;;;3.05;2.00;;;31.10;59.80;;;;;;5052082;28;20233;-58
2022/05/12 12:39:00;;;;;;;2.17;1.70;;;30.90;61.30;;;;;;5051788;28;20266;-58
2022/05/12 12:41:43;;;;;;;6.57;2.00;;;30.50;61.40;;;;;;5051180;28;20698;-57
2022/05/12 12:44:18;;;;;;;4.13;1.80;;;30.10;61.40;;;;;;5051796;28;20205;-58
2022/05/12 12:47:08;;;;;;;4.40;2.13;;;29.80;62.20;;;;;;5051571;28;20225;-57
2022/05/12 12:49:47;;;;;;;4.53;2.00;;;29.80;63.80;;;;;;5051387;28;20216;-57
2022/05/12 12:52:15;;;;;;;2.75;1.75;;;29.50;62.60;;;;;;5051482;28;20205;-57
2022/05/12 12:57:29;;;;;;;6.00;2.30;;;29.10;64.50;;;;;;5051612;28;20734;-58
2022/05/12 13:00:00;;;;;;;6.28;1.92;;;28.80;64.70;;;;;;5051200;28;20244;-58
2022/05/12 13:02:31;;;;;;;2.80;2.17;;;28.40;65.80;;;;;;5051050;28;20304;-58
2022/05/12 13:05:05;;;;;;;7.50;2.42;;;28.50;66.00;;;;;;5051435;28;20241;-59
2022/05/12 13:07:34;;;;;;;3.65;2.00;;;28.80;65.40;;;;;;5051610;28;20297;-57
2022/05/12 13:10:04;;;;;;;5.85;1.90;;;29.10;64.50;;;;;;5051402;28;20206;-58
2022/05/12 13:12:32;;;;;;;2.83;1.98;;;29.20;64.60;;;;;;5051515;28;20201;-58
2022/05/12 13:15:01;;;;;;;4.13;1.75;;;29.20;64.20;;;;;;5051183;28;20264;-58
2022/05/12 13:17:34;;;;;;;5.70;2.05;;;29.50;63.50;;;;;;5051255;28;20286;-58
2022/05/12 13:20:01;;;;;;;4.50;1.92;;;29.80;63.30;;;;;;5050932;28;20705;-58
2022/05/12 13:22:31;;;;;;;4.03;2.00;;;30.00;62.90;;;;;;5051371;28;20205;-58
2022/05/12 13:24:59;;;;;;;5.63;2.10;;;29.90;63.20;;;;;;5051263;28;20658;-58
2022/05/12 13:27:29;;;;;;;5.15;2.03;;;29.80;63.50;;;;;;5051206;28;20201;-57
2022/05/12 13:29:56;;;;;;;6.50;2.58;;;29.90;63.20;;;;;;5051305;28;20283;-58
2022/05/12 13:32:45;;;;;;;6.05;2.53;;;30.10;62.80;;;;;;5051244;28;20205;-58
2022/05/12 13:35:17;;;;;;;4.00;2.05;;;30.50;61.40;;;;;;5051079;28;20610;-58